Camborne, United Kingdom
Current Conditions -  °F | °C
As of 8:50 AM on Thursday 18 Dec 2014 (Local Time) from EGDR Reporting Station
Drizzle Drizzle  
Wind Chill: 11°   Ceiling: 600
Heat Index: 11°   Visibility: 1.8mi
Dew Point: 11°   Wind: 18mph
Humidity: 100%   Direction: 240°WSW
Pressure: 30"   Gusts: 38mph
Location:  50.21°N, 5.3°W
Report Text: EGDR 180850Z 24016G33KT 3000 -DZ FEW002 SCT003 BKN006 11/11 Q1016 YLO2 TEMPO 1500 DZ FEW001 SCT002 BKN003 AMB
Loading
Personal Weather Stations






























Interactive Weather Map New forecast layout! Learn more

10-Day Weather Forecast

Advertisements
Track Severe Weather on mobile